createdAt,value
2024-02-16T00:01:57.323Z,80.29
2024-02-16T00:04:25.120Z,80.40
2024-02-16T00:06:52.810Z,80.76
2024-02-16T00:09:20.661Z,80.90
2024-02-16T00:11:48.407Z,81.03
2024-02-16T00:14:16.342Z,80.88
2024-02-16T00:16:43.921Z,80.43
2024-02-16T00:19:11.722Z,80.39
2024-02-16T00:21:39.528Z,80.28
2024-02-16T00:24:07.016Z,80.33
2024-02-16T00:26:34.558Z,80.13
2024-02-16T00:29:02.115Z,80.33
2024-02-16T00:31:29.884Z,80.45
2024-02-16T00:33:57.533Z,80.35
2024-02-16T00:36:25.348Z,80.34
2024-02-16T00:38:53.176Z,80.24
2024-02-16T00:41:20.933Z,80.50
2024-02-16T00:43:48.684Z,80.32
2024-02-16T00:46:16.237Z,80.30
2024-02-16T00:48:43.906Z,80.35
2024-02-16T00:51:11.726Z,80.73
2024-02-16T00:53:39.334Z,80.52
2024-02-16T00:56:06.885Z,80.49
2024-02-16T00:58:34.445Z,80.34
2024-02-16T01:01:02.116Z,80.62
2024-02-16T01:03:29.831Z,81.28
2024-02-16T01:05:57.554Z,81.16
2024-02-16T01:08:25.106Z,81.28
2024-02-16T01:10:52.803Z,81.00
2024-02-16T01:13:20.512Z,80.96
2024-02-16T01:15:48.078Z,80.93
2024-02-16T01:18:16.034Z,80.97
2024-02-16T01:20:43.805Z,80.80
2024-02-16T01:23:11.378Z,80.60
2024-02-16T01:25:38.953Z,80.77
2024-02-16T01:28:06.485Z,80.58
2024-02-16T01:30:34.186Z,80.40
2024-02-16T01:33:02.067Z,80.38
2024-02-16T01:35:29.904Z,80.41
2024-02-16T01:37:57.547Z,80.55
2024-02-16T01:40:25.100Z,80.56
2024-02-16T01:42:52.763Z,80.39
2024-02-16T01:45:20.452Z,80.46
2024-02-16T01:47:48.242Z,80.57
2024-02-16T01:50:15.963Z,80.46
2024-02-16T01:52:43.610Z,80.43
2024-02-16T01:55:11.225Z,80.18
2024-02-16T01:57:39.068Z,80.34
2024-02-16T02:00:07.026Z,80.30
2024-02-16T02:02:34.675Z,80.22
2024-02-16T02:05:02.341Z,80.24
2024-02-16T02:07:30.292Z,80.31
2024-02-16T02:09:58.058Z,80.29
2024-02-16T02:12:25.647Z,80.38
2024-02-16T02:14:53.326Z,80.47
2024-02-16T02:17:21.079Z,80.64
2024-02-16T02:19:48.880Z,80.58
2024-02-16T02:22:17.032Z,80.53
2024-02-16T02:24:44.738Z,80.38
2024-02-16T02:27:12.439Z,80.33
2024-02-16T02:29:39.961Z,80.45
2024-02-16T02:32:07.731Z,80.20
2024-02-16T02:34:35.437Z,80.18
2024-02-16T02:37:03.146Z,80.17
2024-02-16T02:39:30.776Z,80.03
2024-02-16T02:41:58.814Z,79.87
2024-02-16T02:44:26.548Z,79.71
2024-02-16T02:46:54.106Z,79.58
2024-02-16T02:49:21.920Z,79.54
2024-02-16T02:51:49.635Z,79.42
2024-02-16T02:54:17.559Z,79.40
2024-02-16T02:56:45.171Z,79.41
2024-02-16T02:59:12.827Z,79.24
2024-02-16T03:01:40.692Z,79.19
2024-02-16T03:04:08.237Z,79.29
2024-02-16T03:06:36.034Z,79.20
2024-02-16T03:09:03.701Z,79.20
2024-02-16T03:11:31.290Z,79.13
2024-02-16T03:13:59.087Z,79.13
2024-02-16T03:16:26.665Z,79.08
2024-02-16T03:18:54.366Z,79.01
2024-02-16T03:21:22.124Z,79.08
2024-02-16T03:23:49.929Z,78.99
2024-02-16T03:26:18.018Z,78.93
2024-02-16T03:28:45.681Z,78.77
2024-02-16T03:31:13.242Z,78.81
2024-02-16T03:33:41.023Z,78.69
2024-02-16T03:36:08.775Z,78.72
2024-02-16T03:38:36.337Z,78.85
2024-02-16T03:41:03.990Z,79.01
2024-02-16T03:43:31.657Z,79.04
2024-02-16T03:45:59.516Z,78.85
2024-02-16T03:48:27.242Z,78.98
2024-02-16T03:50:55.058Z,79.12
2024-02-16T03:53:22.603Z,79.18
2024-02-16T03:55:50.366Z,79.04
2024-02-16T03:58:18.028Z,78.83
2024-02-16T04:00:45.765Z,78.66
2024-02-16T04:03:13.504Z,78.73
2024-02-16T04:05:41.623Z,78.80
2024-02-16T04:08:09.187Z,78.92
2024-02-16T04:10:36.854Z,79.17
2024-02-16T04:13:04.418Z,79.08
2024-02-16T04:15:32.230Z,79.05
2024-02-16T04:18:00.082Z,79.17
2024-02-16T04:20:27.806Z,78.92
2024-02-16T04:22:55.357Z,78.85
2024-02-16T04:25:22.917Z,78.79
2024-02-16T04:27:50.883Z,79.03
2024-02-16T04:30:18.474Z,79.19
2024-02-16T04:32:46.221Z,79.20
2024-02-16T04:35:13.969Z,79.20
2024-02-16T04:37:41.630Z,79.25
2024-02-16T04:40:09.296Z,78.98
2024-02-16T04:42:36.868Z,78.75
2024-02-16T04:45:06.573Z,78.68
2024-02-16T04:47:34.844Z,78.54
2024-02-16T04:50:02.681Z,78.57
2024-02-16T04:52:31.259Z,78.43
2024-02-16T04:54:59.150Z,78.55
2024-02-16T04:57:26.722Z,78.51
2024-02-16T04:59:54.403Z,78.27
2024-02-16T05:02:22.446Z,78.13
2024-02-16T05:04:50.121Z,78.11
2024-02-16T05:07:18.164Z,78.07
2024-02-16T05:09:45.838Z,77.99
2024-02-16T05:12:13.591Z,77.93
2024-02-16T05:14:41.255Z,77.98
2024-02-16T05:17:08.825Z,77.82
2024-02-16T05:19:36.452Z,77.68
2024-02-16T05:22:04.132Z,77.74
2024-02-16T05:24:31.787Z,77.59
2024-02-16T05:26:59.496Z,77.43
2024-02-16T05:29:27.337Z,77.36
2024-02-16T05:31:54.997Z,77.18
2024-02-16T05:34:22.604Z,77.03
2024-02-16T05:36:50.433Z,76.93
2024-02-16T05:39:17.886Z,76.78
2024-02-16T05:41:45.533Z,76.65
2024-02-16T05:44:12.882Z,76.42
2024-02-16T05:46:40.441Z,76.32
2024-02-16T05:49:08.082Z,76.10
2024-02-16T05:51:36.068Z,75.92
2024-02-16T05:54:04.135Z,75.70
2024-02-16T05:56:31.810Z,75.42
2024-02-16T05:58:59.475Z,75.26
2024-02-16T06:01:27.046Z,75.24
2024-02-16T06:03:54.603Z,75.12
2024-02-16T06:06:22.358Z,74.98
2024-02-16T06:08:50.161Z,74.76
2024-02-16T06:11:17.866Z,74.34
2024-02-16T06:13:45.537Z,74.06
2024-02-16T06:16:13.206Z,73.68
2024-02-16T06:18:40.999Z,73.25
2024-02-16T06:21:08.761Z,72.60
2024-02-16T06:23:36.401Z,71.97
2024-02-16T06:26:04.159Z,71.19
2024-02-16T06:28:31.815Z,70.48
2024-02-16T06:30:59.476Z,69.86
2024-02-16T06:33:27.216Z,67.75
2024-02-16T06:35:55.255Z,65.52
2024-02-16T06:38:22.972Z,64.04
2024-02-16T06:40:50.523Z,61.07
2024-02-16T06:43:18.086Z,59.11
2024-02-16T06:45:45.685Z,57.21
2024-02-16T06:48:13.753Z,55.94
2024-02-16T06:50:41.552Z,55.14
2024-02-16T06:53:09.364Z,53.22
2024-02-16T06:55:37.320Z,51.57
2024-02-16T06:58:05.001Z,49.90
2024-02-16T07:00:32.713Z,48.93
2024-02-16T07:03:00.438Z,48.12
2024-02-16T07:05:28.107Z,46.88
2024-02-16T07:07:55.723Z,45.75
2024-02-16T07:10:23.279Z,45.60
2024-02-16T07:12:50.884Z,44.13
2024-02-16T07:15:18.832Z,43.55
2024-02-16T07:17:46.457Z,42.28
2024-02-16T07:20:14.321Z,40.51
2024-02-16T07:22:41.997Z,40.11
2024-02-16T07:25:09.656Z,40.08
2024-02-16T07:27:37.259Z,38.77
2024-02-16T07:30:04.912Z,38.21
2024-02-16T07:32:32.506Z,37.77
2024-02-16T07:35:00.180Z,37.20
2024-02-16T07:37:28.174Z,36.28
2024-02-16T07:39:56.053Z,35.56
2024-02-16T07:42:23.623Z,35.15
2024-02-16T07:44:51.340Z,35.43
2024-02-16T07:47:19.028Z,34.44
2024-02-16T07:49:46.802Z,34.11
2024-02-16T07:52:14.552Z,33.52
2024-02-16T07:54:42.317Z,33.00
2024-02-16T07:57:10.326Z,33.66
2024-02-16T07:59:37.940Z,33.44
2024-02-16T08:02:05.614Z,33.74
2024-02-16T08:04:33.264Z,33.46
2024-02-16T08:07:01.118Z,33.19
2024-02-16T08:09:28.897Z,33.01
2024-02-16T08:11:56.517Z,33.20
2024-02-16T08:14:24.319Z,33.58
2024-02-16T08:17:00.966Z,33.44
2024-02-16T08:19:35.937Z,33.77
2024-02-16T08:22:03.580Z,34.02
2024-02-16T08:24:31.195Z,34.97
2024-02-16T08:26:58.936Z,34.68
2024-02-16T08:29:26.475Z,34.50
2024-02-16T08:31:54.021Z,34.67
2024-02-16T08:34:21.644Z,34.71
2024-02-16T08:36:49.859Z,34.51
2024-02-16T08:39:17.349Z,35.47
2024-02-16T08:41:45.090Z,35.12
2024-02-16T08:44:12.462Z,35.55
2024-02-16T08:46:40.103Z,36.21
2024-02-16T08:49:07.918Z,36.11
2024-02-16T08:51:35.854Z,37.21
2024-02-16T08:54:05.872Z,37.96
2024-02-16T08:56:36.784Z,39.65
2024-02-16T08:59:04.341Z,40.48
2024-02-16T09:01:32.365Z,41.25
2024-02-16T09:04:02.177Z,43.34
2024-02-16T09:06:30.555Z,44.27
2024-02-16T09:08:58.318Z,45.87
2024-02-16T09:11:26.111Z,46.44
2024-02-16T09:13:53.698Z,47.27
2024-02-16T09:16:24.299Z,48.42
2024-02-16T09:18:53.183Z,48.05
2024-02-16T09:21:21.082Z,48.63
2024-02-16T09:23:48.844Z,48.63
2024-02-16T09:26:16.533Z,49.06
2024-02-16T09:28:44.065Z,48.66
2024-02-16T09:31:11.721Z,49.19
2024-02-16T09:33:39.398Z,48.82
2024-02-16T09:36:07.166Z,48.60
2024-02-16T09:38:34.820Z,48.92
2024-02-16T09:41:02.365Z,49.12
2024-02-16T09:43:29.950Z,49.47
2024-02-16T09:45:57.531Z,49.59
2024-02-16T09:48:25.320Z,49.37
2024-02-16T09:50:53.194Z,49.51
2024-02-16T09:53:20.974Z,49.27
2024-02-16T09:55:48.547Z,49.55
2024-02-16T09:58:16.198Z,50.10
2024-02-16T10:00:43.914Z,49.06
2024-02-16T10:03:11.866Z,49.12
2024-02-16T10:05:39.554Z,49.26
2024-02-16T10:08:07.261Z,49.97
2024-02-16T10:10:34.924Z,49.78
2024-02-16T10:13:02.482Z,49.70
2024-02-16T10:15:30.187Z,49.37
2024-02-16T10:17:58.024Z,49.53
2024-02-16T10:20:25.779Z,50.04
2024-02-16T10:22:53.321Z,50.33
2024-02-16T10:25:21.189Z,50.50
2024-02-16T10:27:48.851Z,50.45
2024-02-16T10:30:16.513Z,50.02
2024-02-16T10:32:44.398Z,49.78
2024-02-16T10:35:12.013Z,49.60
2024-02-16T10:37:39.816Z,49.81
2024-02-16T10:40:07.375Z,49.97
2024-02-16T10:42:34.969Z,50.05
2024-02-16T10:45:03.059Z,49.30
2024-02-16T10:47:30.799Z,48.87
2024-02-16T10:49:58.661Z,48.76
2024-02-16T10:52:26.408Z,49.26
2024-02-16T10:54:54.051Z,48.84
2024-02-16T10:57:21.632Z,49.35
2024-02-16T10:59:49.365Z,48.39
2024-02-16T11:02:16.942Z,48.85
2024-02-16T11:07:30.291Z,49.01
2024-02-16T11:09:58.144Z,49.48
2024-02-16T11:12:25.763Z,48.60
2024-02-16T11:14:53.506Z,48.61
2024-02-16T11:17:21.051Z,48.44
2024-02-16T11:19:48.911Z,48.57
2024-02-16T11:22:16.658Z,48.99
2024-02-16T11:24:44.536Z,48.74
2024-02-16T11:27:12.110Z,47.85
2024-02-16T11:29:39.883Z,47.87
2024-02-16T11:32:07.497Z,47.75
2024-02-16T11:34:35.178Z,48.08
2024-02-16T11:37:02.823Z,48.02
2024-02-16T11:39:30.579Z,46.66
2024-02-16T11:41:58.269Z,46.53
2024-02-16T11:44:26.239Z,47.27
2024-02-16T11:46:53.882Z,47.25
2024-02-16T11:49:21.552Z,47.12
2024-02-16T11:51:49.519Z,47.71
2024-02-16T11:54:16.982Z,47.34
2024-02-16T11:56:44.643Z,47.59
2024-02-16T11:59:12.299Z,47.38
2024-02-16T12:01:39.974Z,46.14
2024-02-16T12:04:07.514Z,46.75
2024-02-16T12:06:35.332Z,47.36
2024-02-16T12:09:03.368Z,46.44
2024-02-16T12:11:31.115Z,46.35
2024-02-16T12:13:58.780Z,47.09
2024-02-16T12:16:26.441Z,46.42
2024-02-16T12:18:54.065Z,46.93
2024-02-16T12:21:21.997Z,46.72
2024-02-16T12:23:49.830Z,47.20
2024-02-16T12:26:17.493Z,47.59
2024-02-16T12:28:45.052Z,47.42
2024-02-16T12:31:13.041Z,47.02
2024-02-16T12:33:40.790Z,47.09
2024-02-16T12:36:08.703Z,46.60
2024-02-16T12:38:36.228Z,48.27
2024-02-16T12:41:03.906Z,48.18
2024-02-16T12:43:31.458Z,47.40
2024-02-16T12:45:59.053Z,47.66
2024-02-16T12:48:26.887Z,47.59
2024-02-16T12:50:55.158Z,48.10
2024-02-16T12:53:22.828Z,47.65
2024-02-16T12:55:50.500Z,47.73
2024-02-16T12:58:17.966Z,47.17
2024-02-16T13:00:45.697Z,47.54
2024-02-16T13:03:13.572Z,48.24
2024-02-16T13:05:41.422Z,48.70
2024-02-16T13:08:09.122Z,48.25
2024-02-16T13:10:36.758Z,48.62
2024-02-16T13:13:04.730Z,49.39
2024-02-16T13:15:32.374Z,48.24
2024-02-16T13:18:00.486Z,48.64
2024-02-16T13:20:28.353Z,47.73
2024-02-16T13:22:55.916Z,48.26
2024-02-16T13:25:23.641Z,48.43
2024-02-16T13:27:51.216Z,48.01
2024-02-16T13:30:18.837Z,48.25
2024-02-16T13:32:46.567Z,48.35
2024-02-16T13:35:15.776Z,49.01
2024-02-16T13:37:44.397Z,49.26
2024-02-16T13:40:12.167Z,49.89
2024-02-16T13:42:39.751Z,49.19
2024-02-16T13:45:07.501Z,48.89
2024-02-16T13:47:35.265Z,48.57
2024-02-16T13:50:02.853Z,48.67
2024-02-16T13:52:30.545Z,48.23
2024-02-16T13:54:58.234Z,49.04
2024-02-16T13:57:25.795Z,49.90
2024-02-16T13:59:53.439Z,49.81
2024-02-16T14:02:21.078Z,50.68
2024-02-16T14:04:48.679Z,50.81
2024-02-16T14:07:16.440Z,50.46
2024-02-16T14:09:44.434Z,49.88
2024-02-16T14:12:12.278Z,50.22
2024-02-16T14:14:39.895Z,50.52
2024-02-16T14:17:07.555Z,50.35
2024-02-16T14:19:35.842Z,50.55
2024-02-16T14:22:03.736Z,50.19
2024-02-16T14:24:31.687Z,50.14
2024-02-16T14:26:59.260Z,50.12
2024-02-16T14:29:26.878Z,50.41
2024-02-16T14:31:54.544Z,50.68
2024-02-16T14:34:22.112Z,50.80
2024-02-16T14:36:50.115Z,50.81
2024-02-16T14:39:17.648Z,50.16
2024-02-16T14:41:45.500Z,50.73
2024-02-16T14:44:13.151Z,51.04
2024-02-16T14:46:40.805Z,50.80
2024-02-16T14:49:08.569Z,51.07
2024-02-16T14:51:36.563Z,51.43
2024-02-16T14:54:04.349Z,51.82
2024-02-16T14:56:31.985Z,51.81
2024-02-16T14:58:59.640Z,51.57
2024-02-16T15:01:27.621Z,51.41
2024-02-16T15:03:55.324Z,51.55
2024-02-16T15:06:23.108Z,51.84
2024-02-16T15:08:50.930Z,51.65
2024-02-16T15:11:18.699Z,52.13
2024-02-16T15:13:52.170Z,52.37
2024-02-16T15:16:19.827Z,52.52
2024-02-16T15:18:47.608Z,52.71
2024-02-16T15:21:15.325Z,52.99
2024-02-16T15:23:43.427Z,52.89
2024-02-16T15:26:11.090Z,53.09
2024-02-16T15:28:39.060Z,53.30
2024-02-16T15:31:06.635Z,53.51
2024-02-16T15:33:34.370Z,53.54
2024-02-16T15:36:02.101Z,53.66
2024-02-16T15:38:29.699Z,53.83
2024-02-16T15:40:57.266Z,54.52
2024-02-16T15:43:25.127Z,54.89
2024-02-16T15:45:52.757Z,54.92
2024-02-16T15:48:23.553Z,55.30
2024-02-16T15:50:54.999Z,55.79
2024-02-16T15:53:23.659Z,55.83
2024-02-16T15:55:51.211Z,55.92
2024-02-16T15:58:18.562Z,56.16
2024-02-16T16:00:46.193Z,56.31
2024-02-16T16:03:13.994Z,56.54
2024-02-16T16:05:41.785Z,56.55
2024-02-16T16:08:09.459Z,56.67
2024-02-16T16:10:37.085Z,56.77
2024-02-16T16:13:04.653Z,56.86
2024-02-16T16:15:32.232Z,57.02
2024-02-16T16:17:59.945Z,57.25
2024-02-16T16:20:27.917Z,57.31
2024-02-16T16:22:55.595Z,57.44
2024-02-16T16:25:23.571Z,57.61
2024-02-16T16:27:51.195Z,57.47
2024-02-16T16:30:19.044Z,57.64
2024-02-16T16:32:46.694Z,57.74
2024-02-16T16:35:14.476Z,58.02
2024-02-16T16:37:42.281Z,58.20
2024-02-16T16:40:09.937Z,58.16
2024-02-16T16:42:37.610Z,58.26
2024-02-16T16:45:05.735Z,57.99
2024-02-16T16:47:33.360Z,58.15
2024-02-16T16:50:01.114Z,58.17
2024-02-16T16:52:28.866Z,58.13
2024-02-16T16:54:56.434Z,58.17
2024-02-16T16:57:24.138Z,58.49
2024-02-16T16:59:51.854Z,58.59
2024-02-16T17:02:19.609Z,58.88
2024-02-16T17:04:47.592Z,58.77
2024-02-16T17:07:15.354Z,58.46
2024-02-16T17:09:43.088Z,58.76
2024-02-16T17:12:10.909Z,58.94
2024-02-16T17:14:38.632Z,58.87
2024-02-16T17:17:06.300Z,58.86
2024-02-16T17:19:34.365Z,59.16
2024-02-16T17:22:02.229Z,59.18
2024-02-16T17:24:29.905Z,58.90
2024-02-16T17:26:57.922Z,58.79
2024-02-16T17:29:25.633Z,59.00
2024-02-16T17:31:53.300Z,58.92
2024-02-16T17:34:20.815Z,58.87
2024-02-16T17:36:48.692Z,58.76
2024-02-16T17:39:16.282Z,58.55
2024-02-16T17:41:43.828Z,58.85
2024-02-16T17:44:11.401Z,59.01
2024-02-16T17:46:41.401Z,59.00
2024-02-16T17:49:09.398Z,59.39
2024-02-16T17:51:37.164Z,59.30
2024-02-16T17:54:05.087Z,59.52
2024-02-16T17:56:32.873Z,59.17
2024-02-16T17:59:00.438Z,59.41
2024-02-16T18:01:28.113Z,59.14
2024-02-16T18:03:55.779Z,59.42
2024-02-16T18:06:23.665Z,59.49
2024-02-16T18:08:51.398Z,59.51
2024-02-16T18:11:18.939Z,59.34
2024-02-16T18:13:46.496Z,59.50
2024-02-16T18:16:14.159Z,59.30
2024-02-16T18:18:41.984Z,59.80
2024-02-16T18:21:09.723Z,59.87
2024-02-16T18:23:37.552Z,59.73
2024-02-16T18:26:05.117Z,60.03
2024-02-16T18:28:42.011Z,59.95
2024-02-16T18:31:14.360Z,60.14
2024-02-16T18:33:42.182Z,60.16
2024-02-16T18:36:09.925Z,60.60
2024-02-16T18:38:37.547Z,60.34
2024-02-16T18:41:05.122Z,60.53
2024-02-16T18:43:32.683Z,60.61
2024-02-16T18:46:00.334Z,60.81
2024-02-16T18:48:28.097Z,60.88
2024-02-16T18:50:55.958Z,60.77
2024-02-16T18:53:23.614Z,60.94
2024-02-16T18:55:51.287Z,60.89
2024-02-16T18:58:18.743Z,60.85
2024-02-16T19:00:46.358Z,60.85
2024-02-16T19:03:14.243Z,61.16
2024-02-16T19:05:41.938Z,61.31
2024-02-16T19:08:11.642Z,61.15
2024-02-16T19:10:39.647Z,61.34
2024-02-16T19:13:07.277Z,61.39
2024-02-16T19:15:35.462Z,61.13
2024-02-16T19:18:03.190Z,61.25
2024-02-16T19:20:31.069Z,61.37
2024-02-16T19:22:58.622Z,61.43
2024-02-16T19:25:26.313Z,61.42
2024-02-16T19:27:54.044Z,61.48
2024-02-16T19:30:25.049Z,61.60
2024-02-16T19:32:53.393Z,61.68
2024-02-16T19:35:21.079Z,61.79
2024-02-16T19:37:49.101Z,61.83
2024-02-16T19:40:16.671Z,61.83
2024-02-16T19:42:44.634Z,61.99
2024-02-16T19:45:12.362Z,62.01
2024-02-16T19:47:40.268Z,62.12
2024-02-16T19:50:09.835Z,62.00
2024-02-16T19:52:38.034Z,62.28
2024-02-16T19:55:05.635Z,62.15
2024-02-16T19:57:33.803Z,62.24
2024-02-16T20:00:01.431Z,62.38
2024-02-16T20:02:29.105Z,62.28
2024-02-16T20:04:56.708Z,62.34
2024-02-16T20:07:24.594Z,62.34
2024-02-16T20:09:52.389Z,62.29
2024-02-16T20:12:20.072Z,62.41
2024-02-16T20:14:47.915Z,62.47
2024-02-16T20:17:15.880Z,62.58
2024-02-16T20:19:43.691Z,62.77
2024-02-16T20:22:11.508Z,62.85
2024-02-16T20:24:48.020Z,62.88
2024-02-16T20:27:15.877Z,62.91
2024-02-16T20:29:43.511Z,62.95
2024-02-16T20:32:11.159Z,63.00
2024-02-16T20:34:38.817Z,63.09
2024-02-16T20:37:06.483Z,63.21
2024-02-16T20:39:35.910Z,63.25
2024-02-16T20:42:04.887Z,63.22
2024-02-16T20:44:32.542Z,63.21
2024-02-16T20:47:00.203Z,63.28
2024-02-16T20:49:27.790Z,63.36
2024-02-16T20:51:55.323Z,63.44
2024-02-16T20:54:22.697Z,63.49
2024-02-16T20:56:50.350Z,63.52
2024-02-16T20:59:18.407Z,63.56
2024-02-16T21:01:45.990Z,63.63
2024-02-16T21:04:13.939Z,63.70
2024-02-16T21:06:41.821Z,63.55
2024-02-16T21:09:09.691Z,63.68
2024-02-16T21:11:37.428Z,63.70
2024-02-16T21:14:05.198Z,63.78
2024-02-16T21:16:32.750Z,63.88
2024-02-16T21:19:00.533Z,63.73
2024-02-16T21:21:28.246Z,63.79
2024-02-16T21:23:56.377Z,63.72
2024-02-16T21:26:24.023Z,63.74
2024-02-16T21:28:51.576Z,63.71
2024-02-16T21:31:19.237Z,63.82
2024-02-16T21:33:46.976Z,63.62
2024-02-16T21:36:14.695Z,63.81
2024-02-16T21:38:42.526Z,63.66
2024-02-16T21:41:10.100Z,63.71
2024-02-16T21:43:37.959Z,63.54
2024-02-16T21:46:05.661Z,63.55
2024-02-16T21:48:39.593Z,63.40
2024-02-16T21:51:11.918Z,63.63
2024-02-16T21:53:39.555Z,63.61
2024-02-16T21:56:07.122Z,63.60
2024-02-16T21:58:34.776Z,63.63
2024-02-16T22:01:02.805Z,63.57
2024-02-16T22:03:30.594Z,63.59
2024-02-16T22:05:58.413Z,63.49
2024-02-16T22:08:26.039Z,63.39
2024-02-16T22:10:53.908Z,63.26
2024-02-16T22:13:21.570Z,63.30
2024-02-16T22:15:49.147Z,63.19
2024-02-16T22:18:16.771Z,63.17
2024-02-16T22:20:44.563Z,63.23
2024-02-16T22:23:12.420Z,63.21
2024-02-16T22:25:40.074Z,63.15
2024-02-16T22:28:07.641Z,63.06
2024-02-16T22:30:35.238Z,63.03
2024-02-16T22:33:02.890Z,63.03
2024-02-16T22:35:30.719Z,63.00
2024-02-16T22:37:58.280Z,62.99
2024-02-16T22:40:25.947Z,62.98
2024-02-16T22:42:53.869Z,62.93
2024-02-16T22:45:21.622Z,62.81
2024-02-16T22:47:49.296Z,62.79
2024-02-16T22:50:17.086Z,62.78
2024-02-16T22:52:44.761Z,62.85
2024-02-16T22:55:12.461Z,62.77
2024-02-16T22:57:40.211Z,62.72
2024-02-16T23:00:07.927Z,62.66
2024-02-16T23:02:35.916Z,62.66
2024-02-16T23:05:03.586Z,62.76
2024-02-16T23:07:31.187Z,62.74
2024-02-16T23:09:58.998Z,62.78
2024-02-16T23:12:26.596Z,62.77
2024-02-16T23:14:54.226Z,62.80
2024-02-16T23:17:21.883Z,62.73
2024-02-16T23:19:49.475Z,62.86
2024-02-16T23:22:17.104Z,62.81
2024-02-16T23:24:44.821Z,62.85
2024-02-16T23:27:12.671Z,62.82
2024-02-16T23:29:40.388Z,62.84
2024-02-16T23:32:07.954Z,62.80
2024-02-16T23:34:35.755Z,62.89
2024-02-16T23:37:03.590Z,62.94
2024-02-16T23:39:31.187Z,62.96
2024-02-16T23:41:58.920Z,62.91
2024-02-16T23:44:26.252Z,62.89
2024-02-16T23:46:54.220Z,62.79
2024-02-16T23:49:21.921Z,62.91
2024-02-16T23:51:49.656Z,62.86
2024-02-16T23:54:17.408Z,62.84
2024-02-16T23:56:45.199Z,62.71
2024-02-16T23:59:12.945Z,62.69
